Airfield :
LOGIN :

Register | Disclaimer

   EN    FR    IT 

 










Legend :    VFR   Marginal VFR   IFR   Intensive IFR   Very Intensive IFR
Visi :
Ceiling :
>= 8 km
>= 3000ft
5 to 8 km
1000 to 3000 ft
1500m to 5 km
500 to 1000 ft
800 to 1500m
200 to 500 ft
< 800m
< 200 ft
Symbols :   Thunderstorms  Fog  Heavy snow  Heavy precipitations  Wind > 20 kt
SIGMETs :     Misc.  Thunderstorms  Icing  Turbulence  Mountain Waves  Volcanic Ashes







- Airport Elevation : 309 ft
- IATA code : FNI
- Download approach charts


LFTW - Nîmes Garons

CURRENT METAR :
  • 261230Z AUTO 19005KT 150V240 9999 FEW025 SCT058 16/10 Q1020 NOSIG

EXPIRED METARs :
  • 261200Z AUTO 19006KT 130V250 9999 BKN023 BKN029 BKN035 15/10 Q1020 NOSIG
  • 261130Z AUTO 15006KT 110V210 9999 BKN023 BKN029 BKN038 15/09 Q1020 NOSIG
  • 261100Z AUTO 12006KT 080V160 9999 FEW023 BKN058 15/10 Q1020 NOSIG
  • 261030Z AUTO 13007KT 100V170 9999 SCT037 SCT043 BKN066 15/09 Q1020 NOSIG
  • 261000Z AUTO 11006KT 080V140 9999 FEW047 BKN066 14/09 Q1020 NOSIG

TAF TAF LFTW
Valid from the 26 at 09:00 until the 27 at 09:00 UTC


260800Z 2609/2709 VRB05KT CAVOK
TEMPO 2611/2616 16010KT
PROB30
TEMPO 2700/2706 3000 BR NSC
BECMG 2706/2707 BKN014
No reported NOTAMs for that airfield.
1 SIGMET reported for the Marseille FIR (LFMM) :
 
Severe turbulence
LFMM SIGMET 1 VALID 261000/261400 LFPW
LFMM MARSEILLE FIR/UIR SEV TURB FCST WI N4415 E00700 - N4400 E00700 - N4330 E00900 - N4345 E00545 - N4500 E00245 - N4545 E00300 FL160/330 MOV S 10KT NC=



MET'MAP, your aeronautical weather chart ! - Copyright ORBIFLY December 2007 - Disclaimer

ORBIFLY MET'MAP TEAM :

Programming & Development : Alexandra Zaïnal
Concept & Development : Baudouin d'Aumeries
Co-Development & Prog : Marc-Olivier Méhu
Technical & hardware support : Manuel Goepfert

Contact : metmap@orbifly.com




SOURCES & CREDITS :

   NOAA